Port-Daniel, Canada
Current Conditions -  °F | °C
As of 3:00 PM on Thursday 18 Dec 2014 (Local Time) from CYGP Reporting Station
Light Snow Light Snow  
Wind Chill: 23°   Ceiling: 900
Heat Index: 30°   Visibility: 6mi
Dew Point: 27°   Wind: 7mph
Humidity: 86%   Direction: 30°NNE
Pressure: 29.57"   Gusts: NA
Location:  48.18°N, 64.98°W
Report Text: CYGP 182000Z 03006KT 310V100 6SM -SN OVC009 M01/M03 A2957 RMK SC8 SLP016
Loading
Personal Weather Stations






























Interactive Weather Map New forecast layout! Learn more

10-Day Weather Forecast

Advertisements
Track Severe Weather on mobile